sensor_id;sensor_type;location;lat;lon;timestamp;pressure;altitude;pressure_sealevel;temperature;humidity
6835;BME280;3455;42.150;24.734;2023-03-19T00:00:12;65989.56;;;6.21;52.86
6835;BME280;3455;42.150;24.734;2023-03-19T00:02:39;65971.47;;;6.14;52.63
6835;BME280;3455;42.150;24.734;2023-03-19T00:05:07;66005.88;;;6.34;52.65
6835;BME280;3455;42.150;24.734;2023-03-19T00:07:34;65990.13;;;6.40;52.04
6835;BME280;3455;42.150;24.734;2023-03-19T00:10:01;65973.34;;;6.20;53.39
6835;BME280;3455;42.150;24.734;2023-03-19T00:12:28;66006.84;;;6.37;52.50
6835;BME280;3455;42.150;24.734;2023-03-19T00:14:54;66008.47;;;6.27;53.06
6835;BME280;3455;42.150;24.734;2023-03-19T00:17:21;65995.09;;;6.29;52.50
6835;BME280;3455;42.150;24.734;2023-03-19T00:19:48;65991.00;;;5.96;53.34
6835;BME280;3455;42.150;24.734;2023-03-19T00:22:16;65937.66;;;5.53;55.25
6835;BME280;3455;42.150;24.734;2023-03-19T00:24:42;65935.88;;;5.58;55.07
6835;BME280;3455;42.150;24.734;2023-03-19T00:27:09;65969.28;;;5.81;54.50
6835;BME280;3455;42.150;24.734;2023-03-19T00:29:37;66004.38;;;6.12;53.91
6835;BME280;3455;42.150;24.734;2023-03-19T00:32:04;65998.06;;;6.24;53.59
6835;BME280;3455;42.150;24.734;2023-03-19T00:34:31;65942.41;;;5.79;53.96
6835;BME280;3455;42.150;24.734;2023-03-19T00:36:58;65949.00;;;5.76;54.82
6835;BME280;3455;42.150;24.734;2023-03-19T00:39:26;65948.03;;;5.98;54.07
6835;BME280;3455;42.150;24.734;2023-03-19T00:41:53;65967.41;;;5.93;53.90
6835;BME280;3455;42.150;24.734;2023-03-19T00:44:19;65963.81;;;5.67;54.42
6835;BME280;3455;42.150;24.734;2023-03-19T00:46:46;65978.47;;;5.89;53.99
6835;BME280;3455;42.150;24.734;2023-03-19T00:49:13;65980.81;;;6.09;53.40
6835;BME280;3455;42.150;24.734;2023-03-19T00:51:40;65949.00;;;5.58;54.36
6835;BME280;3455;42.150;24.734;2023-03-19T00:54:09;65933.78;;;5.54;55.11
6835;BME280;3455;42.150;24.734;2023-03-19T00:56:38;65934.09;;;5.99;53.57
6835;BME280;3455;42.150;24.734;2023-03-19T00:59:05;65991.31;;;6.05;52.95
6835;BME280;3455;42.150;24.734;2023-03-19T01:01:32;65981.06;;;5.82;53.63
6835;BME280;3455;42.150;24.734;2023-03-19T01:03:59;65943.56;;;5.62;53.77
6835;BME280;3455;42.150;24.734;2023-03-19T01:06:25;65961.78;;;5.74;53.64
6835;BME280;3455;42.150;24.734;2023-03-19T01:08:52;65909.94;;;5.59;53.93
6835;BME280;3455;42.150;24.734;2023-03-19T01:11:19;65986.59;;;5.90;53.27
6835;BME280;3455;42.150;24.734;2023-03-19T01:13:47;65957.69;;;5.59;54.07
6835;BME280;3455;42.150;24.734;2023-03-19T01:16:13;65932.00;;;5.59;53.38
6835;BME280;3455;42.150;24.734;2023-03-19T01:18:40;65905.19;;;5.15;54.56
6835;BME280;3455;42.150;24.734;2023-03-19T01:21:07;65919.00;;;5.45;53.79
6835;BME280;3455;42.150;24.734;2023-03-19T01:23:35;65914.69;;;5.50;53.58
6835;BME280;3455;42.150;24.734;2023-03-19T01:26:01;65932.06;;;5.70;53.44
6835;BME280;3455;42.150;24.734;2023-03-19T01:28:29;65919.00;;;5.63;53.49
6835;BME280;3455;42.150;24.734;2023-03-19T01:30:59;65965.91;;;5.71;54.21
6835;BME280;3455;42.150;24.734;2023-03-19T01:33:26;65931.34;;;5.65;53.80
6835;BME280;3455;42.150;24.734;2023-03-19T01:35:52;65951.41;;;5.90;53.00
6835;BME280;3455;42.150;24.734;2023-03-19T01:38:20;65991.41;;;5.92;53.22
6835;BME280;3455;42.150;24.734;2023-03-19T01:40:47;66017.81;;;6.04;53.30
6835;BME280;3455;42.150;24.734;2023-03-19T01:43:16;65962.69;;;6.02;52.90
6835;BME280;3455;42.150;24.734;2023-03-19T01:45:45;65958.59;;;6.05;52.68
6835;BME280;3455;42.150;24.734;2023-03-19T01:48:20;65973.03;;;6.11;52.11
6835;BME280;3455;42.150;24.734;2023-03-19T01:50:51;66008.25;;;6.11;52.59
6835;BME280;3455;42.150;24.734;2023-03-19T01:53:23;65991.81;;;6.12;52.59
6835;BME280;3455;42.150;24.734;2023-03-19T01:55:51;65924.75;;;5.68;53.75
6835;BME280;3455;42.150;24.734;2023-03-19T01:58:20;65947.94;;;5.51;54.12
6835;BME280;3455;42.150;24.734;2023-03-19T02:00:47;65934.81;;;5.68;53.47
6835;BME280;3455;42.150;24.734;2023-03-19T02:03:14;65986.28;;;6.05;53.10
6835;BME280;3455;42.150;24.734;2023-03-19T02:05:44;66011.88;;;6.37;52.31
6835;BME280;3455;42.150;24.734;2023-03-19T02:08:13;65991.44;;;6.28;52.48
6835;BME280;3455;42.150;24.734;2023-03-19T02:10:42;66001.94;;;6.23;52.39
6835;BME280;3455;42.150;24.734;2023-03-19T02:13:10;65965.91;;;6.25;52.47
6835;BME280;3455;42.150;24.734;2023-03-19T02:15:37;66001.50;;;6.28;52.08
6835;BME280;3455;42.150;24.734;2023-03-19T02:18:05;66013.28;;;6.47;51.95
6835;BME280;3455;42.150;24.734;2023-03-19T02:20:36;66060.69;;;6.69;51.51
6835;BME280;3455;42.150;24.734;2023-03-19T02:23:12;66006.69;;;6.50;51.54
6835;BME280;3455;42.150;24.734;2023-03-19T02:25:55;66044.56;;;6.73;51.56
6835;BME280;3455;42.150;24.734;2023-03-19T02:28:23;66034.69;;;6.89;51.30
6835;BME280;3455;42.150;24.734;2023-03-19T02:30:50;66102.47;;;7.09;50.02
6835;BME280;3455;42.150;24.734;2023-03-19T02:33:18;66103.91;;;7.19;49.18
6835;BME280;3455;42.150;24.734;2023-03-19T02:35:46;66081.72;;;7.08;49.71
6835;BME280;3455;42.150;24.734;2023-03-19T02:38:14;66162.50;;;7.49;49.02
6835;BME280;3455;42.150;24.734;2023-03-19T02:40:45;66107.44;;;7.63;48.24
6835;BME280;3455;42.150;24.734;2023-03-19T02:43:15;66145.91;;;7.74;47.08
6835;BME280;3455;42.150;24.734;2023-03-19T02:45:41;66144.47;;;7.64;47.87
6835;BME280;3455;42.150;24.734;2023-03-19T02:48:08;66152.13;;;7.57;48.32
6835;BME280;3455;42.150;24.734;2023-03-19T02:50:37;66079.88;;;7.20;48.89
6835;BME280;3455;42.150;24.734;2023-03-19T02:53:04;66096.69;;;7.39;47.95
6835;BME280;3455;42.150;24.734;2023-03-19T02:55:31;66205.88;;;7.56;47.18
6835;BME280;3455;42.150;24.734;2023-03-19T02:57:57;66138.72;;;7.59;47.69
6835;BME280;3455;42.150;24.734;2023-03-19T03:00:26;66200.22;;;7.91;47.09
6835;BME280;3455;42.150;24.734;2023-03-19T03:02:53;66160.09;;;7.71;47.30
6835;BME280;3455;42.150;24.734;2023-03-19T03:05:20;66154.41;;;7.77;46.61
6835;BME280;3455;42.150;24.734;2023-03-19T03:07:47;66142.41;;;7.60;46.57
6835;BME280;3455;42.150;24.734;2023-03-19T03:10:14;66124.91;;;7.47;47.24
6835;BME280;3455;42.150;24.734;2023-03-19T03:12:41;66102.31;;;7.22;48.00
6835;BME280;3455;42.150;24.734;2023-03-19T03:15:08;66092.91;;;7.63;47.37
6835;BME280;3455;42.150;24.734;2023-03-19T03:17:37;66187.41;;;7.04;48.19
6835;BME280;3455;42.150;24.734;2023-03-19T03:20:06;66091.69;;;7.21;48.51
6835;BME280;3455;42.150;24.734;2023-03-19T03:22:33;66131.81;;;7.53;48.27
6835;BME280;3455;42.150;24.734;2023-03-19T03:25:00;66125.56;;;7.40;48.64
6835;BME280;3455;42.150;24.734;2023-03-19T03:27:27;66133.94;;;7.68;48.21
6835;BME280;3455;42.150;24.734;2023-03-19T03:29:54;66128.31;;;7.38;47.95
6835;BME280;3455;42.150;24.734;2023-03-19T03:32:20;66158.47;;;7.63;48.04
6835;BME280;3455;42.150;24.734;2023-03-19T03:34:49;66122.75;;;7.31;48.19
6835;BME280;3455;42.150;24.734;2023-03-19T03:37:16;66137.28;;;7.49;47.92
6835;BME280;3455;42.150;24.734;2023-03-19T03:39:43;66155.00;;;7.60;47.67
6835;BME280;3455;42.150;24.734;2023-03-19T03:42:10;66144.63;;;7.51;48.25
6835;BME280;3455;42.150;24.734;2023-03-19T03:44:37;66132.16;;;7.73;47.20
6835;BME280;3455;42.150;24.734;2023-03-19T03:47:04;66154.28;;;7.55;48.24
6835;BME280;3455;42.150;24.734;2023-03-19T03:49:31;66148.50;;;7.86;47.19
6835;BME280;3455;42.150;24.734;2023-03-19T03:51:59;66103.41;;;7.59;47.84
6835;BME280;3455;42.150;24.734;2023-03-19T03:54:26;66167.38;;;7.62;47.57
6835;BME280;3455;42.150;24.734;2023-03-19T03:56:52;66155.00;;;7.78;47.23
6835;BME280;3455;42.150;24.734;2023-03-19T03:59:19;66191.00;;;8.01;46.44
6835;BME280;3455;42.150;24.734;2023-03-19T04:01:46;66145.63;;;7.65;47.00
6835;BME280;3455;42.150;24.734;2023-03-19T04:04:13;66166.03;;;7.63;47.22
6835;BME280;3455;42.150;24.734;2023-03-19T04:06:39;66154.34;;;7.66;46.95
6835;BME280;3455;42.150;24.734;2023-03-19T04:09:07;66147.78;;;7.80;47.18
6835;BME280;3455;42.150;24.734;2023-03-19T04:11:35;66158.41;;;7.99;46.74
6835;BME280;3455;42.150;24.734;2023-03-19T04:14:01;66158.69;;;8.08;46.54
6835;BME280;3455;42.150;24.734;2023-03-19T04:16:28;66179.56;;;8.13;46.27
6835;BME280;3455;42.150;24.734;2023-03-19T04:18:55;66134.66;;;7.73;46.73
6835;BME280;3455;42.150;24.734;2023-03-19T04:21:22;66146.94;;;7.53;47.44
6835;BME280;3455;42.150;24.734;2023-03-19T04:23:49;66147.22;;;7.62;46.91
6835;BME280;3455;42.150;24.734;2023-03-19T04:26:17;66191.09;;;7.76;47.34
6835;BME280;3455;42.150;24.734;2023-03-19T04:28:44;66175.91;;;7.65;46.62
6835;BME280;3455;42.150;24.734;2023-03-19T04:31:11;66178.22;;;7.96;46.42
6835;BME280;3455;42.150;24.734;2023-03-19T04:33:38;66179.91;;;7.87;46.70
6835;BME280;3455;42.150;24.734;2023-03-19T04:36:05;66155.06;;;7.71;47.57
6835;BME280;3455;42.150;24.734;2023-03-19T04:38:32;66139.50;;;7.75;47.44
6835;BME280;3455;42.150;24.734;2023-03-19T04:40:59;66180.94;;;7.65;47.56
6835;BME280;3455;42.150;24.734;2023-03-19T04:43:27;66148.91;;;7.82;47.31
6835;BME280;3455;42.150;24.734;2023-03-19T04:45:54;66113.13;;;7.27;48.19
6835;BME280;3455;42.150;24.734;2023-03-19T04:48:21;66090.78;;;7.30;48.05
6835;BME280;3455;42.150;24.734;2023-03-19T04:50:48;66144.03;;;7.68;47.11
6835;BME280;3455;42.150;24.734;2023-03-19T04:53:16;66207.59;;;7.75;47.12
6835;BME280;3455;42.150;24.734;2023-03-19T04:55:44;66182.34;;;7.93;46.72
6835;BME280;3455;42.150;24.734;2023-03-19T04:58:12;66142.78;;;7.45;47.45
6835;BME280;3455;42.150;24.734;2023-03-19T05:00:40;66178.03;;;7.80;46.36
6835;BME280;3455;42.150;24.734;2023-03-19T05:03:07;66138.56;;;7.72;46.93
6835;BME280;3455;42.150;24.734;2023-03-19T05:05:33;66168.94;;;7.95;46.52
6835;BME280;3455;42.150;24.734;2023-03-19T05:08:00;66187.19;;;8.25;45.78
6835;BME280;3455;42.150;24.734;2023-03-19T05:10:27;66166.47;;;8.06;46.20
6835;BME280;3455;42.150;24.734;2023-03-19T05:12:55;66182.91;;;7.94;46.58
6835;BME280;3455;42.150;24.734;2023-03-19T05:15:21;66181.06;;;7.88;46.74
6835;BME280;3455;42.150;24.734;2023-03-19T05:17:50;66174.84;;;8.05;46.45
6835;BME280;3455;42.150;24.734;2023-03-19T05:20:17;66175.41;;;8.05;46.44
6835;BME280;3455;42.150;24.734;2023-03-19T05:22:44;66204.56;;;8.33;45.70
6835;BME280;3455;42.150;24.734;2023-03-19T05:25:11;66180.28;;;8.18;46.70
6835;BME280;3455;42.150;24.734;2023-03-19T05:27:39;66214.84;;;8.49;45.99
6835;BME280;3455;42.150;24.734;2023-03-19T05:30:07;66260.53;;;8.47;46.26
6835;BME280;3455;42.150;24.734;2023-03-19T05:32:34;66197.88;;;8.25;45.80
6835;BME280;3455;42.150;24.734;2023-03-19T05:35:03;66147.59;;;8.12;45.91
6835;BME280;3455;42.150;24.734;2023-03-19T05:37:30;66233.63;;;8.39;45.75
6835;BME280;3455;42.150;24.734;2023-03-19T05:39:58;66233.97;;;8.60;44.91
6835;BME280;3455;42.150;24.734;2023-03-19T05:42:24;66207.69;;;8.16;45.68
6835;BME280;3455;42.150;24.734;2023-03-19T05:44:51;66294.09;;;8.82;45.21
6835;BME280;3455;42.150;24.734;2023-03-19T05:47:18;66265.72;;;8.81;44.90
6835;BME280;3455;42.150;24.734;2023-03-19T05:49:45;66242.16;;;8.71;44.42
6835;BME280;3455;42.150;24.734;2023-03-19T05:52:13;66277.63;;;9.23;44.48
6835;BME280;3455;42.150;24.734;2023-03-19T05:54:40;66444.41;;;10.76;40.96
6835;BME280;3455;42.150;24.734;2023-03-19T05:57:07;66598.63;;;12.36;37.75
6835;BME280;3455;42.150;24.734;2023-03-19T05:59:34;66643.22;;;12.80;36.20
6835;BME280;3455;42.150;24.734;2023-03-19T06:02:01;66611.41;;;12.06;36.83
6835;BME280;3455;42.150;24.734;2023-03-19T06:04:28;66707.84;;;13.33;35.15
6835;BME280;3455;42.150;24.734;2023-03-19T06:06:55;66758.28;;;13.82;33.41
6835;BME280;3455;42.150;24.734;2023-03-19T06:09:23;66778.53;;;14.00;32.63
6835;BME280;3455;42.150;24.734;2023-03-19T06:11:50;66693.75;;;13.11;33.49
6835;BME280;3455;42.150;24.734;2023-03-19T06:14:16;66758.75;;;13.78;33.09
6835;BME280;3455;42.150;24.734;2023-03-19T06:16:43;66776.13;;;13.82;33.29
6835;BME280;3455;42.150;24.734;2023-03-19T06:19:10;66723.69;;;13.56;33.80
6835;BME280;3455;42.150;24.734;2023-03-19T06:21:37;66715.72;;;13.42;34.08
6835;BME280;3455;42.150;24.734;2023-03-19T06:24:04;66922.63;;;15.01;31.77
6835;BME280;3455;42.150;24.734;2023-03-19T06:26:32;67060.63;;;16.50;30.14
6835;BME280;3455;42.150;24.734;2023-03-19T06:29:00;67140.56;;;17.27;28.22
6835;BME280;3455;42.150;24.734;2023-03-19T06:31:26;67169.16;;;17.73;28.29
6835;BME280;3455;42.150;24.734;2023-03-19T06:33:53;67314.53;;;18.83;26.58
6835;BME280;3455;42.150;24.734;2023-03-19T06:36:20;67396.97;;;19.52;25.62
6835;BME280;3455;42.150;24.734;2023-03-19T06:38:47;67316.16;;;17.76;26.47
6835;BME280;3455;42.150;24.734;2023-03-19T06:41:14;67337.53;;;19.06;25.98
6835;BME280;3455;42.150;24.734;2023-03-19T06:43:42;67362.31;;;19.62;25.77
6835;BME280;3455;42.150;24.734;2023-03-19T06:46:09;67386.78;;;19.56;25.75
6835;BME280;3455;42.150;24.734;2023-03-19T06:48:36;67469.63;;;19.57;25.78
6835;BME280;3455;42.150;24.734;2023-03-19T06:51:04;67468.28;;;20.33;24.90
6835;BME280;3455;42.150;24.734;2023-03-19T06:53:30;67492.09;;;20.38;25.04
6835;BME280;3455;42.150;24.734;2023-03-19T06:55:57;67550.22;;;20.69;24.62
6835;BME280;3455;42.150;24.734;2023-03-19T06:58:24;67678.63;;;21.80;23.64
6835;BME280;3455;42.150;24.734;2023-03-19T07:00:52;67648.06;;;21.87;23.50
6835;BME280;3455;42.150;24.734;2023-03-19T07:03:19;67584.34;;;21.49;24.32
6835;BME280;3455;42.150;24.734;2023-03-19T07:05:47;67602.41;;;21.65;23.59
6835;BME280;3455;42.150;24.734;2023-03-19T07:08:15;67572.19;;;21.11;23.92
6835;BME280;3455;42.150;24.734;2023-03-19T07:10:42;67525.56;;;20.97;23.99
6835;BME280;3455;42.150;24.734;2023-03-19T07:13:09;67492.44;;;20.25;25.55
6835;BME280;3455;42.150;24.734;2023-03-19T07:15:35;67635.03;;;21.77;23.77
6835;BME280;3455;42.150;24.734;2023-03-19T07:18:03;67805.47;;;22.93;22.34
6835;BME280;3455;42.150;24.734;2023-03-19T07:20:32;67656.75;;;21.74;22.93
6835;BME280;3455;42.150;24.734;2023-03-19T07:22:59;67622.94;;;21.60;23.49
6835;BME280;3455;42.150;24.734;2023-03-19T07:25:25;67800.56;;;22.91;22.20
6835;BME280;3455;42.150;24.734;2023-03-19T07:27:52;67747.91;;;22.52;22.78
6835;BME280;3455;42.150;24.734;2023-03-19T07:30:22;67878.19;;;23.44;20.94
6835;BME280;3455;42.150;24.734;2023-03-19T07:32:49;67776.47;;;22.77;21.85
6835;BME280;3455;42.150;24.734;2023-03-19T07:35:17;67994.97;;;24.46;21.32
6835;BME280;3455;42.150;24.734;2023-03-19T07:37:43;67849.47;;;23.46;21.80
6835;BME280;3455;42.150;24.734;2023-03-19T07:40:10;68088.72;;;25.06;20.13
6835;BME280;3455;42.150;24.734;2023-03-19T07:42:37;68071.97;;;25.05;19.69
6835;BME280;3455;42.150;24.734;2023-03-19T07:45:05;67903.19;;;23.77;20.83
6835;BME280;3455;42.150;24.734;2023-03-19T07:47:32;67937.75;;;23.96;20.86
6835;BME280;3455;42.150;24.734;2023-03-19T07:49:59;67978.06;;;24.68;19.33
6835;BME280;3455;42.150;24.734;2023-03-19T07:52:27;68024.00;;;24.58;19.78
6835;BME280;3455;42.150;24.734;2023-03-19T07:54:54;68006.31;;;24.70;19.80
6835;BME280;3455;42.150;24.734;2023-03-19T07:57:21;67972.78;;;24.27;20.58
6835;BME280;3455;42.150;24.734;2023-03-19T07:59:49;68207.06;;;26.03;18.57
6835;BME280;3455;42.150;24.734;2023-03-19T08:02:16;68260.66;;;26.52;18.33
6835;BME280;3455;42.150;24.734;2023-03-19T08:04:43;68198.94;;;26.00;18.16
6835;BME280;3455;42.150;24.734;2023-03-19T08:07:11;68260.31;;;26.29;18.44
6835;BME280;3455;42.150;24.734;2023-03-19T08:09:39;68272.16;;;26.49;19.21
6835;BME280;3455;42.150;24.734;2023-03-19T08:12:07;68288.84;;;26.82;18.45
6835;BME280;3455;42.150;24.734;2023-03-19T08:14:34;68231.19;;;26.13;18.31
6835;BME280;3455;42.150;24.734;2023-03-19T08:17:01;68342.75;;;26.92;17.97
6835;BME280;3455;42.150;24.734;2023-03-19T08:19:28;68338.94;;;27.07;17.62
6835;BME280;3455;42.150;24.734;2023-03-19T08:21:54;68406.13;;;27.52;17.55
6835;BME280;3455;42.150;24.734;2023-03-19T08:24:21;68296.47;;;26.52;18.03
6835;BME280;3455;42.150;24.734;2023-03-19T08:26:50;68161.53;;;25.88;19.30
6835;BME280;3455;42.150;24.734;2023-03-19T08:29:16;68425.22;;;27.51;17.08
6835;BME280;3455;42.150;24.734;2023-03-19T08:31:43;68456.34;;;27.62;16.44
6835;BME280;3455;42.150;24.734;2023-03-19T08:34:10;68453.94;;;27.76;16.27
6835;BME280;3455;42.150;24.734;2023-03-19T08:36:37;68463.91;;;27.85;16.15
6835;BME280;3455;42.150;24.734;2023-03-19T08:39:04;68496.03;;;28.24;16.31
6835;BME280;3455;42.150;24.734;2023-03-19T08:41:30;68440.00;;;27.73;17.02
6835;BME280;3455;42.150;24.734;2023-03-19T08:43:58;68672.03;;;29.48;15.04
6835;BME280;3455;42.150;24.734;2023-03-19T08:46:25;68617.72;;;29.03;15.10
6835;BME280;3455;42.150;24.734;2023-03-19T08:48:54;68542.72;;;28.67;15.83
6835;BME280;3455;42.150;24.734;2023-03-19T08:51:21;68511.16;;;28.49;15.79
6835;BME280;3455;42.150;24.734;2023-03-19T08:53:49;68510.31;;;28.30;16.26
6835;BME280;3455;42.150;24.734;2023-03-19T08:56:15;68486.72;;;28.21;17.47
6835;BME280;3455;42.150;24.734;2023-03-19T08:58:42;68722.06;;;29.56;16.21
6835;BME280;3455;42.150;24.734;2023-03-19T09:01:12;68612.13;;;28.96;15.62
6835;BME280;3455;42.150;24.734;2023-03-19T09:03:40;68590.06;;;28.95;15.95
6835;BME280;3455;42.150;24.734;2023-03-19T09:06:09;68886.88;;;30.63;14.84
6835;BME280;3455;42.150;24.734;2023-03-19T09:08:37;68697.63;;;29.53;16.09
6835;BME280;3455;42.150;24.734;2023-03-19T09:11:04;68657.47;;;29.45;15.20
6835;BME280;3455;42.150;24.734;2023-03-19T09:13:32;68591.00;;;28.78;16.52
6835;BME280;3455;42.150;24.734;2023-03-19T09:15:59;68563.59;;;28.67;16.34
6835;BME280;3455;42.150;24.734;2023-03-19T09:18:27;68802.19;;;29.94;14.96
6835;BME280;3455;42.150;24.734;2023-03-19T09:20:54;68778.25;;;29.86;14.76
6835;BME280;3455;42.150;24.734;2023-03-19T09:23:21;68842.41;;;30.42;15.61
6835;BME280;3455;42.150;24.734;2023-03-19T09:25:48;69124.09;;;32.31;14.51
6835;BME280;3455;42.150;24.734;2023-03-19T09:28:15;69242.84;;;32.77;13.44
6835;BME280;3455;42.150;24.734;2023-03-19T09:30:45;69634.97;;;34.80;12.54
6835;BME280;3455;42.150;24.734;2023-03-19T09:33:12;68853.56;;;30.52;14.80
6835;BME280;3455;42.150;24.734;2023-03-19T09:35:41;68889.44;;;30.83;14.90
6835;BME280;3455;42.150;24.734;2023-03-19T09:38:08;68717.56;;;29.65;15.26
6835;BME280;3455;42.150;24.734;2023-03-19T09:40:37;69049.34;;;31.75;15.28
6835;BME280;3455;42.150;24.734;2023-03-19T09:43:28;68983.91;;;31.38;15.06
6835;BME280;3455;42.150;24.734;2023-03-19T09:45:58;69132.91;;;32.13;14.56
6835;BME280;3455;42.150;24.734;2023-03-19T09:48:32;69161.22;;;32.38;14.49
6835;BME280;3455;42.150;24.734;2023-03-19T09:51:05;69279.22;;;32.90;14.16
6835;BME280;3455;42.150;24.734;2023-03-19T09:53:39;69111.06;;;31.94;15.43
6835;BME280;3455;42.150;24.734;2023-03-19T09:56:12;69097.47;;;32.24;15.24
6835;BME280;3455;42.150;24.734;2023-03-19T09:58:41;69215.34;;;32.71;14.86
6835;BME280;3455;42.150;24.734;2023-03-19T10:01:22;69184.31;;;32.63;14.22
6835;BME280;3455;42.150;24.734;2023-03-19T10:04:02;69259.88;;;33.08;13.92
6835;BME280;3455;42.150;24.734;2023-03-19T10:06:34;69646.44;;;35.04;13.49
6835;BME280;3455;42.150;24.734;2023-03-19T10:09:17;69209.38;;;32.62;15.12
6835;BME280;3455;42.150;24.734;2023-03-19T10:11:56;69217.13;;;32.73;15.00
6835;BME280;3455;42.150;24.734;2023-03-19T10:14:58;68908.63;;;30.82;16.38
6835;BME280;3455;42.150;24.734;2023-03-19T10:17:30;68978.97;;;31.41;16.17
6835;BME280;3455;42.150;24.734;2023-03-19T10:20:02;69179.56;;;32.58;15.61
6835;BME280;3455;42.150;24.734;2023-03-19T10:22:36;68954.03;;;31.26;16.07
6835;BME280;3455;42.150;24.734;2023-03-19T10:25:07;69361.34;;;33.62;15.00
6835;BME280;3455;42.150;24.734;2023-03-19T10:27:36;69378.50;;;33.77;14.26
6835;BME280;3455;42.150;24.734;2023-03-19T10:30:12;69938.34;;;36.65;12.47
6835;BME280;3455;42.150;24.734;2023-03-19T10:32:41;69884.22;;;36.34;12.66
6835;BME280;3455;42.150;24.734;2023-03-19T10:35:16;69649.97;;;35.07;12.69
6835;BME280;3455;42.150;24.734;2023-03-19T10:37:46;69281.03;;;33.17;14.00
6835;BME280;3455;42.150;24.734;2023-03-19T10:40:20;69461.88;;;34.03;14.02
6835;BME280;3455;42.150;24.734;2023-03-19T10:43:00;69226.44;;;32.72;15.28
6835;BME280;3455;42.150;24.734;2023-03-19T10:45:31;69232.69;;;33.05;15.02
6835;BME280;3455;42.150;24.734;2023-03-19T10:48:00;69280.78;;;33.19;14.76
6835;BME280;3455;42.150;24.734;2023-03-19T10:50:29;69542.41;;;34.32;14.51
6835;BME280;3455;42.150;24.734;2023-03-19T10:53:05;69467.38;;;34.22;14.52
6835;BME280;3455;42.150;24.734;2023-03-19T10:55:33;69648.53;;;35.28;14.14
6835;BME280;3455;42.150;24.734;2023-03-19T10:58:05;69197.72;;;32.86;14.98
6835;BME280;3455;42.150;24.734;2023-03-19T11:00:33;69483.84;;;34.06;14.12
6835;BME280;3455;42.150;24.734;2023-03-19T11:03:01;69535.00;;;34.48;13.85
6835;BME280;3455;42.150;24.734;2023-03-19T11:05:32;69432.31;;;33.78;14.90
6835;BME280;3455;42.150;24.734;2023-03-19T11:08:01;69612.69;;;35.00;13.49
6835;BME280;3455;42.150;24.734;2023-03-19T11:10:32;69883.88;;;36.32;12.75
6835;BME280;3455;42.150;24.734;2023-03-19T11:13:02;69796.31;;;35.79;13.46
6835;BME280;3455;42.150;24.734;2023-03-19T11:15:33;69522.13;;;34.46;14.01
6835;BME280;3455;42.150;24.734;2023-03-19T11:18:06;69802.50;;;36.02;13.52
6835;BME280;3455;42.150;24.734;2023-03-19T11:20:35;69464.34;;;34.14;14.41
6835;BME280;3455;42.150;24.734;2023-03-19T11:23:06;69424.78;;;33.85;13.83
6835;BME280;3455;42.150;24.734;2023-03-19T11:25:39;69324.53;;;33.16;14.76
6835;BME280;3455;42.150;24.734;2023-03-19T11:28:08;69418.34;;;33.84;14.25
6835;BME280;3455;42.150;24.734;2023-03-19T11:30:45;69455.78;;;34.30;13.96
6835;BME280;3455;42.150;24.734;2023-03-19T11:33:45;69722.34;;;35.49;14.22
6835;BME280;3455;42.150;24.734;2023-03-19T11:36:17;69435.66;;;34.12;14.01
6835;BME280;3455;42.150;24.734;2023-03-19T11:38:56;69262.84;;;33.35;14.65
6835;BME280;3455;42.150;24.734;2023-03-19T11:41:39;69510.28;;;34.36;13.53
6835;BME280;3455;42.150;24.734;2023-03-19T11:44:13;69501.13;;;34.51;14.07
6835;BME280;3455;42.150;24.734;2023-03-19T11:46:48;69738.25;;;35.58;13.49
6835;BME280;3455;42.150;24.734;2023-03-19T11:52:17;69263.69;;;33.09;15.09
6835;BME280;3455;42.150;24.734;2023-03-19T11:54:59;69323.34;;;33.15;14.61
6835;BME280;3455;42.150;24.734;2023-03-19T11:57:42;69427.38;;;34.05;13.96
6835;BME280;3455;42.150;24.734;2023-03-19T12:00:25;69358.38;;;33.80;14.63
6835;BME280;3455;42.150;24.734;2023-03-19T12:03:38;69610.56;;;34.96;13.62
6835;BME280;3455;42.150;24.734;2023-03-19T12:06:21;69573.22;;;34.59;13.78
6835;BME280;3455;42.150;24.734;2023-03-19T12:08:56;69798.50;;;36.13;12.58
6835;BME280;3455;42.150;24.734;2023-03-19T12:11:30;69829.16;;;36.21;12.57
6835;BME280;3455;42.150;24.734;2023-03-19T12:14:11;69850.28;;;36.21;12.51
6835;BME280;3455;42.150;24.734;2023-03-19T12:16:57;69848.56;;;36.24;13.73
6835;BME280;3455;42.150;24.734;2023-03-19T12:19:53;69674.47;;;35.42;13.42
6835;BME280;3455;42.150;24.734;2023-03-19T12:22:34;69534.06;;;34.66;14.25
6835;BME280;3455;42.150;24.734;2023-03-19T12:25:20;69412.28;;;34.15;14.07
6835;BME280;3455;42.150;24.734;2023-03-19T12:27:53;69658.28;;;35.14;13.35
6835;BME280;3455;42.150;24.734;2023-03-19T12:30:29;69006.19;;;31.49;15.40
6835;BME280;3455;42.150;24.734;2023-03-19T12:33:09;69421.69;;;33.93;14.20
6835;BME280;3455;42.150;24.734;2023-03-19T12:35:38;69578.84;;;34.86;13.61
6835;BME280;3455;42.150;24.734;2023-03-19T12:38:11;69621.50;;;35.23;13.38
6835;BME280;3455;42.150;24.734;2023-03-19T12:40:42;69070.75;;;31.87;15.76
6835;BME280;3455;42.150;24.734;2023-03-19T12:43:17;69256.59;;;33.23;14.50
6835;BME280;3455;42.150;24.734;2023-03-19T12:45:46;69394.09;;;34.08;14.53
6835;BME280;3455;42.150;24.734;2023-03-19T12:48:19;69583.59;;;34.90;13.52
6835;BME280;3455;42.150;24.734;2023-03-19T12:50:51;69294.94;;;33.31;14.35
6835;BME280;3455;42.150;24.734;2023-03-19T12:53:31;69454.09;;;34.12;14.32
6835;BME280;3455;42.150;24.734;2023-03-19T12:56:05;69823.88;;;36.21;12.88
6835;BME280;3455;42.150;24.734;2023-03-19T12:58:38;69553.56;;;34.78;13.74
6835;BME280;3455;42.150;24.734;2023-03-19T13:01:14;69487.06;;;34.52;13.75
6835;BME280;3455;42.150;24.734;2023-03-19T13:03:49;69686.25;;;35.47;13.63
6835;BME280;3455;42.150;24.734;2023-03-19T13:06:23;69610.69;;;35.05;13.11
6835;BME280;3455;42.150;24.734;2023-03-19T13:08:56;69486.63;;;34.41;13.97
6835;BME280;3455;42.150;24.734;2023-03-19T13:11:33;69345.03;;;33.66;14.75
6835;BME280;3455;42.150;24.734;2023-03-19T13:14:06;69495.25;;;34.50;14.33
6835;BME280;3455;42.150;24.734;2023-03-19T13:16:42;69557.81;;;34.45;13.82
6835;BME280;3455;42.150;24.734;2023-03-19T13:19:17;69335.63;;;33.62;14.66
6835;BME280;3455;42.150;24.734;2023-03-19T13:21:50;69204.41;;;32.85;15.31
6835;BME280;3455;42.150;24.734;2023-03-19T13:24:20;69401.72;;;34.10;14.20
6835;BME280;3455;42.150;24.734;2023-03-19T13:26:51;69322.00;;;33.46;14.88
6835;BME280;3455;42.150;24.734;2023-03-19T13:29:21;69318.16;;;33.65;14.37